createdAt,value
2022-12-09T00:01:17.716Z,84.19
2022-12-09T00:03:44.901Z,84.38
2022-12-09T00:06:18.504Z,84.10
2022-12-09T00:08:45.874Z,83.84
2022-12-09T00:11:12.720Z,84.38
2022-12-09T00:13:39.888Z,83.85
2022-12-09T00:16:08.596Z,83.97
2022-12-09T00:18:36.049Z,84.53
2022-12-09T00:21:35.435Z,84.12
2022-12-09T00:24:05.183Z,84.05
2022-12-09T00:26:32.098Z,84.68
2022-12-09T00:28:59.665Z,83.97
2022-12-09T00:31:30.887Z,84.30
2022-12-09T00:33:59.917Z,84.30
2022-12-09T00:36:28.483Z,83.63
2022-12-09T00:38:57.248Z,84.29
2022-12-09T00:41:24.625Z,84.07
2022-12-09T00:43:51.945Z,84.15
2022-12-09T00:46:19.122Z,84.05
2022-12-09T00:48:46.533Z,83.73
2022-12-09T00:51:16.578Z,83.80
2022-12-09T00:53:43.535Z,83.52
2022-12-09T00:56:10.533Z,83.47
2022-12-09T00:58:37.307Z,84.08
2022-12-09T01:01:04.299Z,84.33
2022-12-09T01:03:31.380Z,84.41
2022-12-09T01:05:59.092Z,84.27
2022-12-09T01:08:26.126Z,84.78
2022-12-09T01:10:53.235Z,84.54
2022-12-09T01:13:20.120Z,84.51
2022-12-09T01:15:47.611Z,84.45
2022-12-09T01:18:14.478Z,84.03
2022-12-09T01:20:41.587Z,84.18
2022-12-09T01:23:08.592Z,84.01
2022-12-09T01:25:37.533Z,84.84
2022-12-09T01:28:04.425Z,84.99
2022-12-09T01:30:31.032Z,84.98
2022-12-09T01:32:58.056Z,84.49
2022-12-09T01:35:24.915Z,84.30
2022-12-09T01:37:51.896Z,84.43
2022-12-09T01:40:19.639Z,84.55
2022-12-09T01:42:46.892Z,85.00
2022-12-09T01:45:19.931Z,84.05
2022-12-09T01:47:57.917Z,84.62
2022-12-09T01:50:27.254Z,84.79
2022-12-09T01:52:55.436Z,84.56
2022-12-09T01:55:24.594Z,84.60
2022-12-09T01:57:52.992Z,85.16
2022-12-09T02:00:20.911Z,84.62
2022-12-09T02:02:50.572Z,84.08
2022-12-09T02:05:21.839Z,84.57
2022-12-09T02:07:54.271Z,82.98
2022-12-09T02:10:22.119Z,83.63
2022-12-09T02:13:29.331Z,83.70
2022-12-09T02:16:02.534Z,84.23
2022-12-09T02:18:32.870Z,84.88
2022-12-09T02:21:12.430Z,84.59
2022-12-09T02:24:10.172Z,84.06
2022-12-09T02:26:43.251Z,84.18
2022-12-09T02:29:29.311Z,84.80
2022-12-09T02:32:27.365Z,85.03
2022-12-09T02:35:00.834Z,84.10
2022-12-09T02:37:40.547Z,84.92
2022-12-09T02:40:14.931Z,84.42
2022-12-09T02:42:44.852Z,85.63
2022-12-09T02:45:13.738Z,85.77
2022-12-09T02:47:48.890Z,85.46
2022-12-09T02:50:20.989Z,85.96
2022-12-09T02:52:49.595Z,85.68
2022-12-09T02:55:18.509Z,84.58
2022-12-09T02:57:45.222Z,85.52
2022-12-09T03:00:15.564Z,84.69
2022-12-09T03:02:49.986Z,84.32
2022-12-09T03:05:48.447Z,84.11
2022-12-09T03:08:17.653Z,84.31
2022-12-09T03:10:50.805Z,84.93
2022-12-09T03:13:45.264Z,85.54
2022-12-09T03:16:19.184Z,85.08
2022-12-09T03:18:50.816Z,86.10
2022-12-09T03:21:21.970Z,85.67
2022-12-09T03:23:52.591Z,86.29
2022-12-09T03:26:20.680Z,85.52
2022-12-09T03:28:50.718Z,85.95
2022-12-09T03:31:24.335Z,86.27
2022-12-09T03:33:57.782Z,85.74
2022-12-09T03:36:28.536Z,85.86
2022-12-09T03:38:56.194Z,85.83
2022-12-09T03:41:29.727Z,86.21
2022-12-09T03:44:08.127Z,86.61
2022-12-09T03:46:35.361Z,86.69
2022-12-09T03:49:02.248Z,86.58
2022-12-09T03:51:39.897Z,86.65
2022-12-09T03:54:12.647Z,87.50
2022-12-09T03:56:44.094Z,87.86
2022-12-09T03:59:13.756Z,86.97
2022-12-09T04:01:42.931Z,86.98
2022-12-09T04:04:11.327Z,86.95
2022-12-09T04:06:38.614Z,86.89
2022-12-09T04:09:05.479Z,87.66
2022-12-09T04:11:33.547Z,87.11
2022-12-09T04:14:00.546Z,87.10
2022-12-09T04:16:27.817Z,87.33
2022-12-09T04:18:54.806Z,87.31
2022-12-09T04:21:21.557Z,87.14
2022-12-09T04:23:48.203Z,87.62
2022-12-09T04:26:17.090Z,87.94
2022-12-09T04:28:44.160Z,87.61
2022-12-09T04:31:15.543Z,87.91
2022-12-09T04:33:43.406Z,87.58
2022-12-09T04:36:13.061Z,88.16
2022-12-09T04:38:40.954Z,87.79
2022-12-09T04:41:08.109Z,87.87
2022-12-09T04:43:35.209Z,87.25
2022-12-09T04:46:04.494Z,88.35
2022-12-09T04:48:31.729Z,88.58
2022-12-09T04:50:59.962Z,87.65
2022-12-09T04:53:27.432Z,87.61
2022-12-09T04:56:05.570Z,87.92
2022-12-09T04:58:34.288Z,87.66
2022-12-09T05:01:09.798Z,88.27
2022-12-09T05:03:36.859Z,88.55
2022-12-09T05:06:10.936Z,88.64
2022-12-09T05:08:38.788Z,88.96
2022-12-09T05:11:06.322Z,88.51
2022-12-09T05:13:33.736Z,89.39
2022-12-09T05:16:02.777Z,89.43
2022-12-09T05:18:30.703Z,88.45
2022-12-09T05:20:57.869Z,88.04
2022-12-09T05:23:25.470Z,88.06
2022-12-09T05:25:52.419Z,88.25
2022-12-09T05:28:19.647Z,88.48
2022-12-09T05:30:46.563Z,88.81
2022-12-09T05:33:13.777Z,88.88
2022-12-09T05:35:52.376Z,89.42
2022-12-09T05:38:19.659Z,89.42
2022-12-09T05:40:46.641Z,89.96
2022-12-09T05:43:13.348Z,89.12
2022-12-09T05:45:40.358Z,90.02
2022-12-09T05:48:07.578Z,89.79
2022-12-09T05:50:34.797Z,89.57
2022-12-09T05:53:02.116Z,89.71
2022-12-09T05:55:29.239Z,89.63
2022-12-09T05:57:56.231Z,88.73
2022-12-09T06:00:23.237Z,88.85
2022-12-09T06:02:50.307Z,89.42
2022-12-09T06:05:18.278Z,89.87
2022-12-09T06:07:45.591Z,89.92
2022-12-09T06:10:13.126Z,89.61
2022-12-09T06:12:41.095Z,90.24
2022-12-09T06:15:10.555Z,90.63
2022-12-09T06:17:38.750Z,91.06
2022-12-09T06:20:07.078Z,90.93
2022-12-09T06:22:34.702Z,90.92
2022-12-09T06:25:01.344Z,91.17
2022-12-09T06:27:28.170Z,91.53
2022-12-09T06:29:54.842Z,91.52
2022-12-09T06:32:21.822Z,91.19
2022-12-09T06:34:48.682Z,90.79
2022-12-09T06:37:16.587Z,90.39
2022-12-09T06:39:43.752Z,91.10
2022-12-09T06:42:10.796Z,90.83
2022-12-09T06:44:39.572Z,91.22
2022-12-09T06:47:07.657Z,91.38
2022-12-09T06:49:34.860Z,91.45
2022-12-09T06:52:01.951Z,90.64
2022-12-09T06:54:29.051Z,90.83
2022-12-09T06:56:56.281Z,90.63
2022-12-09T06:59:23.544Z,90.50
2022-12-09T07:01:50.833Z,90.55
2022-12-09T07:04:17.859Z,89.72
2022-12-09T07:06:46.101Z,90.65
2022-12-09T07:09:19.874Z,89.72
2022-12-09T07:11:47.993Z,89.92
2022-12-09T07:14:16.898Z,90.20
2022-12-09T07:16:44.548Z,89.45
2022-12-09T07:19:20.111Z,90.24
2022-12-09T07:21:48.615Z,90.07
2022-12-09T07:24:16.104Z,89.61
2022-12-09T07:26:43.291Z,90.82
2022-12-09T07:29:10.064Z,90.24
2022-12-09T07:31:37.404Z,90.22
2022-12-09T07:34:05.743Z,89.63
2022-12-09T07:36:35.171Z,90.36
2022-12-09T07:39:16.411Z,90.81
2022-12-09T07:41:44.045Z,90.53
2022-12-09T07:44:12.045Z,90.17
2022-12-09T07:46:39.666Z,90.51
2022-12-09T07:49:07.301Z,91.15
2022-12-09T07:51:34.764Z,90.95
2022-12-09T07:54:01.840Z,90.53
2022-12-09T07:56:29.351Z,91.29
2022-12-09T07:58:57.440Z,90.68
2022-12-09T08:01:27.828Z,90.80
2022-12-09T08:03:56.009Z,91.07
2022-12-09T08:06:27.021Z,90.52
2022-12-09T08:08:54.930Z,89.66
2022-12-09T08:11:27.535Z,89.70
2022-12-09T08:13:57.659Z,89.91
2022-12-09T08:16:24.951Z,89.92
2022-12-09T08:18:53.660Z,89.65
2022-12-09T08:21:31.261Z,89.77
2022-12-09T08:24:00.858Z,89.16
2022-12-09T08:26:30.819Z,88.55
2022-12-09T08:28:58.817Z,88.83
2022-12-09T08:31:27.319Z,88.63
2022-12-09T08:33:55.010Z,88.79
2022-12-09T08:36:24.775Z,88.09
2022-12-09T08:38:52.364Z,87.75
2022-12-09T08:41:35.356Z,87.72
2022-12-09T08:44:07.290Z,87.54
2022-12-09T08:46:36.418Z,88.19
2022-12-09T08:49:04.644Z,88.29
2022-12-09T08:51:32.556Z,88.10
2022-12-09T08:54:00.717Z,87.70
2022-12-09T08:56:28.469Z,86.90
2022-12-09T08:58:56.383Z,86.87
2022-12-09T09:01:26.826Z,86.68
2022-12-09T09:03:53.863Z,86.20
2022-12-09T09:06:21.190Z,86.29
2022-12-09T09:08:48.764Z,86.30
2022-12-09T09:11:19.796Z,85.57
2022-12-09T09:13:48.953Z,85.96
2022-12-09T09:16:18.651Z,85.75
2022-12-09T09:18:45.592Z,86.09
2022-12-09T09:21:15.405Z,85.50
2022-12-09T09:23:43.758Z,86.11
2022-12-09T09:26:12.572Z,86.22
2022-12-09T09:28:40.581Z,85.85
2022-12-09T09:31:09.317Z,85.97
2022-12-09T09:33:36.596Z,86.80
2022-12-09T09:36:10.208Z,86.08
2022-12-09T09:38:38.480Z,85.54
2022-12-09T09:41:47.318Z,86.26
2022-12-09T09:44:33.147Z,85.67
2022-12-09T09:47:02.056Z,85.75
2022-12-09T09:49:36.887Z,85.42
2022-12-09T09:52:09.631Z,86.07
2022-12-09T09:54:37.877Z,85.41
2022-12-09T09:57:16.514Z,85.19
2022-12-09T09:59:55.734Z,85.69
2022-12-09T10:02:38.095Z,85.90
2022-12-09T10:05:23.134Z,85.72
2022-12-09T10:08:03.349Z,85.66
2022-12-09T10:10:45.509Z,85.66
2022-12-09T10:13:48.398Z,86.26
2022-12-09T10:16:21.966Z,86.02
2022-12-09T10:19:12.299Z,86.45
2022-12-09T10:21:44.402Z,85.97
2022-12-09T10:24:20.398Z,86.61
2022-12-09T10:27:13.311Z,86.05
2022-12-09T10:30:07.965Z,86.02
2022-12-09T10:32:37.558Z,86.11
2022-12-09T10:35:13.607Z,85.81
2022-12-09T10:37:40.937Z,85.82
2022-12-09T10:40:08.029Z,86.01
2022-12-09T10:43:03.826Z,86.86
2022-12-09T10:45:52.607Z,87.48
2022-12-09T10:48:33.653Z,87.10
2022-12-09T10:51:06.030Z,87.73
2022-12-09T10:53:35.260Z,87.44
2022-12-09T10:56:03.363Z,87.72
2022-12-09T10:58:32.572Z,87.19
2022-12-09T11:01:11.115Z,87.55
2022-12-09T11:03:38.005Z,87.66
2022-12-09T11:06:21.780Z,87.67
2022-12-09T11:09:00.097Z,87.04
2022-12-09T11:11:44.620Z,87.17
2022-12-09T11:14:24.895Z,87.69
2022-12-09T11:16:54.457Z,87.53
2022-12-09T11:19:31.725Z,86.71
2022-12-09T11:22:29.270Z,87.56
2022-12-09T11:25:06.126Z,86.87
2022-12-09T11:27:34.848Z,86.13
2022-12-09T11:30:16.528Z,86.48
2022-12-09T11:32:55.845Z,86.89
2022-12-09T11:35:37.412Z,86.70
2022-12-09T11:38:15.112Z,87.18
2022-12-09T11:40:41.926Z,87.31
2022-12-09T11:43:09.628Z,87.17
2022-12-09T11:45:40.791Z,86.72
2022-12-09T11:48:33.966Z,86.31
2022-12-09T11:51:04.672Z,86.31
2022-12-09T11:53:34.165Z,85.86
2022-12-09T11:56:05.558Z,86.68
2022-12-09T11:58:41.636Z,86.47
2022-12-09T12:01:11.561Z,85.57
2022-12-09T12:03:46.331Z,85.89
2022-12-09T12:06:42.266Z,86.67
2022-12-09T12:09:19.629Z,87.03
2022-12-09T12:11:58.342Z,86.76
2022-12-09T12:14:29.164Z,86.81
2022-12-09T12:17:17.602Z,86.86
2022-12-09T12:19:51.616Z,87.33
2022-12-09T12:22:33.291Z,85.86
2022-12-09T12:25:06.115Z,86.78
2022-12-09T12:27:42.216Z,86.58
2022-12-09T12:30:15.602Z,87.29
2022-12-09T12:33:53.141Z,87.21
2022-12-09T12:35:56.216Z,87.12
2022-12-09T12:38:47.886Z,87.12
2022-12-09T12:41:22.186Z,87.97
2022-12-09T12:44:39.255Z,87.81
2022-12-09T12:47:32.696Z,88.31
2022-12-09T12:50:14.367Z,88.39
2022-12-09T12:52:59.568Z,88.21
2022-12-09T12:55:26.231Z,88.69
2022-12-09T12:57:52.771Z,88.48
2022-12-09T13:00:22.442Z,88.75
2022-12-09T13:03:07.471Z,89.60
2022-12-09T13:05:39.655Z,89.54
2022-12-09T13:08:23.290Z,89.66
2022-12-09T13:10:57.169Z,89.19
2022-12-09T13:13:44.801Z,89.73
2022-12-09T13:16:44.628Z,89.38
2022-12-09T13:19:26.885Z,88.85
2022-12-09T13:21:53.708Z,88.92
2022-12-09T13:24:40.420Z,89.30
2022-12-09T13:27:36.778Z,88.92
2022-12-09T13:30:17.098Z,89.08
2022-12-09T13:33:01.190Z,89.69
2022-12-09T13:35:55.733Z,89.82
2022-12-09T13:38:43.173Z,89.76
2022-12-09T13:41:51.796Z,89.45
2022-12-09T13:44:19.475Z,89.46
2022-12-09T13:46:46.097Z,89.77
2022-12-09T13:49:25.161Z,90.06
2022-12-09T13:51:54.087Z,90.13
2022-12-09T13:54:25.351Z,90.11
2022-12-09T13:57:06.978Z,89.98
2022-12-09T13:59:45.379Z,90.64
2022-12-09T14:02:20.991Z,89.82
2022-12-09T14:05:06.725Z,90.87
2022-12-09T14:08:09.790Z,90.09
2022-12-09T14:10:40.043Z,89.75
2022-12-09T14:13:35.280Z,90.42
2022-12-09T14:16:26.538Z,90.07
2022-12-09T14:18:53.767Z,90.60
2022-12-09T14:21:25.577Z,90.52
2022-12-09T14:24:16.346Z,89.82
2022-12-09T14:27:10.238Z,89.62
2022-12-09T14:29:56.257Z,89.81
2022-12-09T14:32:28.961Z,89.64
2022-12-09T14:35:01.424Z,90.20
2022-12-09T14:37:37.790Z,90.18
2022-12-09T14:40:35.195Z,91.11
2022-12-09T14:43:07.723Z,91.53
2022-12-09T14:45:46.420Z,91.53
2022-12-09T14:48:20.699Z,91.14
2022-12-09T14:50:47.620Z,91.32
2022-12-09T14:53:24.961Z,91.47
2022-12-09T14:55:51.903Z,90.41
2022-12-09T14:58:22.307Z,89.89
2022-12-09T15:01:01.001Z,90.54
2022-12-09T15:03:34.354Z,90.87
2022-12-09T15:06:12.877Z,90.56
2022-12-09T15:08:41.495Z,90.58
2022-12-09T15:11:18.192Z,91.00
2022-12-09T15:13:49.506Z,91.48
2022-12-09T15:16:21.234Z,90.93
2022-12-09T15:18:49.252Z,91.80
2022-12-09T15:21:46.440Z,91.32
2022-12-09T15:24:15.078Z,91.50
2022-12-09T15:26:41.730Z,91.67
2022-12-09T15:29:22.341Z,90.89
2022-12-09T15:31:50.749Z,91.21
2022-12-09T15:34:24.812Z,91.29
2022-12-09T15:37:00.769Z,91.17
2022-12-09T15:39:50.532Z,91.25
2022-12-09T15:42:23.066Z,91.12
2022-12-09T15:44:55.573Z,91.83
2022-12-09T15:47:34.906Z,91.77
2022-12-09T15:50:18.397Z,91.72
2022-12-09T15:52:51.338Z,92.00
2022-12-09T15:55:30.587Z,91.63
2022-12-09T15:58:00.734Z,91.78
2022-12-09T16:00:28.129Z,91.69
2022-12-09T16:02:56.089Z,91.46
2022-12-09T16:05:25.486Z,91.78
2022-12-09T16:07:56.795Z,92.06
2022-12-09T16:10:26.944Z,92.51
2022-12-09T16:13:23.723Z,91.63
2022-12-09T16:16:00.235Z,92.16
2022-12-09T16:18:46.757Z,91.79
2022-12-09T16:21:26.036Z,90.93
2022-12-09T16:23:55.952Z,91.26
2022-12-09T16:26:30.662Z,91.67
2022-12-09T16:29:00.729Z,92.05
2022-12-09T16:31:28.517Z,92.54
2022-12-09T16:33:55.479Z,92.30
2022-12-09T16:36:29.032Z,91.71
2022-12-09T16:39:07.996Z,91.33
2022-12-09T16:41:52.886Z,91.60
2022-12-09T16:44:34.484Z,91.73
2022-12-09T16:47:10.731Z,90.96
2022-12-09T16:49:40.444Z,91.53
2022-12-09T16:52:12.266Z,92.32
2022-12-09T16:54:39.052Z,92.19
2022-12-09T16:57:05.910Z,92.01
2022-12-09T16:59:37.922Z,92.08
2022-12-09T17:02:15.800Z,91.96
2022-12-09T17:04:42.451Z,92.77
2022-12-09T17:07:09.483Z,93.23
2022-12-09T17:09:36.299Z,92.72
2022-12-09T17:12:03.118Z,93.07
2022-12-09T17:14:30.222Z,92.18
2022-12-09T17:16:56.922Z,92.63
2022-12-09T17:19:24.012Z,93.22
2022-12-09T17:21:52.117Z,92.87
2022-12-09T17:24:19.230Z,92.72
2022-12-09T17:26:46.195Z,92.31
2022-12-09T17:29:13.777Z,92.52
2022-12-09T17:31:40.568Z,92.48
2022-12-09T17:34:07.340Z,92.35
2022-12-09T17:36:34.034Z,92.01
2022-12-09T17:39:03.603Z,92.69
2022-12-09T17:41:30.494Z,92.49
2022-12-09T17:43:57.886Z,92.79
2022-12-09T17:46:24.801Z,93.10
2022-12-09T17:48:51.675Z,92.69
2022-12-09T17:51:18.463Z,92.36
2022-12-09T17:53:46.424Z,93.53
2022-12-09T17:56:19.908Z,93.03
2022-12-09T17:58:48.200Z,93.58
2022-12-09T18:03:55.984Z,93.15
2022-12-09T18:06:25.246Z,93.05
2022-12-09T18:08:52.430Z,92.99
2022-12-09T18:11:19.172Z,93.49
2022-12-09T18:13:46.642Z,93.87
2022-12-09T18:16:14.220Z,92.96
2022-12-09T18:18:41.871Z,93.49
2022-12-09T18:21:15.297Z,93.88
2022-12-09T18:23:42.984Z,93.00
2022-12-09T18:26:12.050Z,93.55
2022-12-09T18:28:39.629Z,92.87
2022-12-09T18:31:14.961Z,93.29
2022-12-09T18:33:42.706Z,92.78
2022-12-09T18:36:12.628Z,92.04
2022-12-09T18:38:40.090Z,92.72
2022-12-09T18:41:19.704Z,92.52
2022-12-09T18:43:48.721Z,93.02
2022-12-09T18:46:25.415Z,92.88
2022-12-09T18:49:01.200Z,93.55
2022-12-09T18:51:28.886Z,93.40
2022-12-09T18:53:58.374Z,92.91
2022-12-09T18:56:26.106Z,92.58
2022-12-09T18:59:09.428Z,93.90
2022-12-09T19:01:42.694Z,93.68
2022-12-09T19:04:24.483Z,92.99
2022-12-09T19:06:53.873Z,93.08
2022-12-09T19:09:23.538Z,93.19
2022-12-09T19:11:52.238Z,92.52
2022-12-09T19:14:21.185Z,93.23
2022-12-09T19:16:48.448Z,92.60
2022-12-09T19:19:18.310Z,93.01
2022-12-09T19:21:46.067Z,92.84
2022-12-09T19:24:15.296Z,94.41
2022-12-09T19:26:42.949Z,93.75
2022-12-09T19:29:11.587Z,94.13
2022-12-09T19:31:44.367Z,94.44
2022-12-09T19:34:26.839Z,94.40
2022-12-09T19:36:55.855Z,94.60
2022-12-09T19:39:25.387Z,94.36
2022-12-09T19:41:52.840Z,94.44
2022-12-09T19:44:37.189Z,94.11
2022-12-09T19:47:07.547Z,93.65
2022-12-09T19:49:34.640Z,93.95
2022-12-09T19:52:01.609Z,94.03
2022-12-09T19:54:29.694Z,93.94
2022-12-09T19:56:56.916Z,94.14
2022-12-09T19:59:23.594Z,93.78
2022-12-09T20:01:50.661Z,93.63
2022-12-09T20:07:08.955Z,93.65
2022-12-09T20:09:37.416Z,93.34
2022-12-09T20:12:04.328Z,92.44
2022-12-09T20:14:30.949Z,93.02
2022-12-09T20:16:57.597Z,92.62
2022-12-09T20:19:24.656Z,92.48
2022-12-09T20:21:51.479Z,92.79
2022-12-09T20:24:18.032Z,92.52
2022-12-09T20:26:44.868Z,91.39
2022-12-09T20:29:11.741Z,91.23
2022-12-09T20:31:39.108Z,91.28
2022-12-09T20:34:13.388Z,90.63
2022-12-09T20:36:41.759Z,91.46
2022-12-09T20:39:14.895Z,90.90
2022-12-09T20:41:42.613Z,90.24
2022-12-09T20:44:11.034Z,90.06
2022-12-09T20:46:39.326Z,90.83
2022-12-09T20:49:06.664Z,91.52
2022-12-09T20:51:36.268Z,92.17
2022-12-09T20:54:05.253Z,91.97
2022-12-09T20:56:32.684Z,91.78
2022-12-09T20:58:59.838Z,92.62
2022-12-09T21:01:32.195Z,93.14
2022-12-09T21:04:01.267Z,93.63
2022-12-09T21:06:31.418Z,93.88
2022-12-09T21:09:03.651Z,93.88
2022-12-09T21:11:31.002Z,93.61
2022-12-09T21:14:00.568Z,94.04
2022-12-09T21:16:33.748Z,93.32
2022-12-09T21:19:03.662Z,93.15
2022-12-09T21:21:32.733Z,93.28
2022-12-09T21:24:00.095Z,92.69
2022-12-09T21:26:27.234Z,92.94
2022-12-09T21:28:54.612Z,93.25
2022-12-09T21:31:27.014Z,93.11
2022-12-09T21:33:56.046Z,93.13
2022-12-09T21:36:25.480Z,92.94
2022-12-09T21:38:53.453Z,91.47
2022-12-09T21:41:24.551Z,91.78
2022-12-09T21:43:52.345Z,91.30
2022-12-09T21:46:24.634Z,91.10
2022-12-09T21:48:53.166Z,90.14
2022-12-09T21:51:22.187Z,90.61
2022-12-09T21:53:49.760Z,91.45
2022-12-09T21:56:23.578Z,91.52
2022-12-09T21:58:52.610Z,91.36
2022-12-09T22:01:26.697Z,91.51
2022-12-09T22:03:54.624Z,90.83
2022-12-09T22:06:21.576Z,90.63
2022-12-09T22:08:48.767Z,90.43
2022-12-09T22:11:21.682Z,90.98
2022-12-09T22:13:48.505Z,90.58
2022-12-09T22:16:18.537Z,90.29
2022-12-09T22:18:46.180Z,90.84
2022-12-09T22:21:24.688Z,91.15
2022-12-09T22:23:56.924Z,90.63
2022-12-09T22:26:24.570Z,91.54
2022-12-09T22:28:51.996Z,91.23
2022-12-09T22:31:25.944Z,91.45
2022-12-09T22:33:54.944Z,91.42
2022-12-09T22:36:22.305Z,90.99
2022-12-09T22:38:49.458Z,90.36
2022-12-09T22:41:22.186Z,89.88
2022-12-09T22:43:50.154Z,90.33
2022-12-09T22:46:26.549Z,90.29
2022-12-09T22:48:54.215Z,91.22
2022-12-09T22:51:25.048Z,90.66
2022-12-09T22:53:53.421Z,91.24
2022-12-09T22:56:20.714Z,90.38
2022-12-09T22:58:48.127Z,90.22
2022-12-09T23:01:24.529Z,89.57
2022-12-09T23:03:51.367Z,89.78
2022-12-09T23:06:18.363Z,90.30
2022-12-09T23:08:45.757Z,89.75
2022-12-09T23:11:23.616Z,90.16
2022-12-09T23:13:50.664Z,90.35
2022-12-09T23:16:22.747Z,89.82
2022-12-09T23:18:51.191Z,90.00
2022-12-09T23:21:29.366Z,89.51
2022-12-09T23:23:58.428Z,89.15
2022-12-09T23:26:27.399Z,88.57
2022-12-09T23:28:56.163Z,88.64
2022-12-09T23:31:25.531Z,89.40
2022-12-09T23:33:52.857Z,89.92
2022-12-09T23:36:22.953Z,89.68
2022-12-09T23:38:50.092Z,89.71
2022-12-09T23:41:19.342Z,89.61
2022-12-09T23:43:48.020Z,88.54
2022-12-09T23:46:18.237Z,88.66
2022-12-09T23:48:47.330Z,89.93
2022-12-09T23:51:21.019Z,90.09
2022-12-09T23:53:49.090Z,89.64
2022-12-09T23:56:18.857Z,89.22
2022-12-09T23:58:46.824Z,89.99
